Cedar Falls, Iowa
Current Conditions -  °F | °C
As of 10:54 AM on Friday 19 Dec 2014 (Local Time) from KALO Reporting Station
Overcast Overcast  
Wind Chill: -7°   Ceiling: 3700
Heat Index: -2°   Visibility: 8mi
Dew Point: -6°   Wind: 8mph
Humidity: 78%   Direction: 150°SSE
Pressure: 30.28"   Gusts: NA
Location:  42.53°N, 92.44°W
Report Text: KALO 191654Z 15007KT 8SM OVC037 M02/M06 A3028 RMK AO2 SLP266 T10221056
Loading
Personal Weather Stations






























Interactive Weather Map New forecast layout! Learn more

10-Day Weather Forecast

Advertisements
Track Severe Weather on mobile